Time;durP1;ratioP1;P1;durP2;ratioP2;P2;SDS_P1;SDS_P2;PMS_P1;PMS_P2;Temp;Humidity;BMP_temperature;BMP_pressure;BME280_temperature;BME280_humidity;BME280_pressure;Samples;Min_cycle;Max_cycle;Signal;HPM_P1;HPM_P2
2023/05/18 00:02:22;;;;;;;;;;;;;;;5.97;88.60;97065.09;4983723;28;19983;-76
2023/05/18 00:04:48;;;;;;;;;;;;;;;5.96;89.16;97068.66;4983667;28;20037;-76
2023/05/18 00:07:14;;;;;;;;;;;;;;;5.96;87.94;97063.47;4983811;28;19956;-76
2023/05/18 00:09:40;;;;;;;;;;;;;;;5.94;89.99;97060.19;4983711;28;19946;-76
2023/05/18 00:12:06;;;;;;;;;;;;;;;5.91;88.35;97055.34;5050072;28;19963;-74
2023/05/18 00:14:32;;;;;;;;;;;;;;;5.90;88.52;97053.72;4983690;28;20204;-67
2023/05/18 00:17:00;;;;;;;;;;;;;;;5.87;88.40;97047.06;4982933;28;20155;-68
2023/05/18 00:19:27;;;;;;;;;;;;;;;5.87;88.55;97051.47;4983742;28;19957;-67
2023/05/18 00:21:54;;;;;;;;;;;;;;;5.85;88.64;97043.81;4983203;28;20235;-67
2023/05/18 00:24:21;;;;;;;;;;;;;;;5.84;88.78;97042.22;4983166;28;19990;-67
2023/05/18 00:26:50;;;;;;;;;;;;;;;5.81;89.61;97047.75;4983175;28;19965;-67
2023/05/18 00:29:16;;;;;;;;;;;;;;;5.79;90.33;97049.72;4983195;28;20147;-75
2023/05/18 00:31:43;;;;;;;;;;;;;;;5.78;90.45;97047.28;4983419;28;19959;-73
2023/05/18 00:34:13;;;;;;;;;;;;;;;5.77;89.63;97046.47;4983491;28;19944;-73
2023/05/18 00:36:39;;;;;;;;;;;;;;;5.76;91.83;97044.06;5050051;28;20138;-74
2023/05/18 00:39:06;;;;;;;;;;;;;;;5.73;89.13;97047.78;4983210;28;19962;-74
2023/05/18 00:41:32;;;;;;;;;;;;;;;5.69;91.37;97054.31;5050004;28;19945;-73
2023/05/18 00:43:58;;;;;;;;;;;;;;;5.65;90.33;97053.06;4982713;28;19968;-73
2023/05/18 00:46:25;;;;;;;;;;;;;;;5.61;89.98;97036.19;4983098;28;19957;-73
2023/05/18 00:48:52;;;;;;;;;;;;;;;5.57;91.64;97040.09;4983088;28;19960;-71
2023/05/18 00:51:19;;;;;;;;;;;;;;;5.54;90.05;97033.44;4983135;28;19949;-73
2023/05/18 00:53:45;;;;;;;;;;;;;;;5.51;89.92;97038.19;5050032;28;19958;-73
2023/05/18 00:56:12;;;;;;;;;;;;;;;5.47;90.41;97040.31;4982879;28;19968;-73
2023/05/18 00:58:38;;;;;;;;;;;;;;;5.41;90.00;97034.00;4982828;28;19956;-73
2023/05/18 01:01:04;;;;;;;;;;;;;;;5.40;91.02;97034.19;5049790;28;19962;-73
2023/05/18 01:03:34;;;;;;;;;;;;;;;5.38;92.06;97038.75;4982932;28;19952;-73
2023/05/18 01:05:59;;;;;;;;;;;;;;;5.37;92.11;97037.09;4982750;28;20129;-73
2023/05/18 01:08:26;;;;;;;;;;;;;;;5.36;91.53;97028.50;4982389;28;19949;-67
2023/05/18 01:11:00;;;;;;;;;;;;;;;5.35;91.17;97019.06;5049525;28;19964;-72
2023/05/18 01:13:32;;;;;;;;;;;;;;;5.34;90.61;97022.66;4982476;28;19958;-72
2023/05/18 01:16:00;;;;;;;;;;;;;;;5.34;91.32;97029.66;4982803;28;19965;-73
2023/05/18 01:18:30;;;;;;;;;;;;;;;5.32;91.72;97029.03;4982196;28;19957;-73
2023/05/18 01:20:59;;;;;;;;;;;;;;;5.31;92.61;97037.78;4982493;28;19961;-73
2023/05/18 01:23:40;;;;;;;;;;;;;;;5.27;90.90;97022.53;4982611;28;20014;-73
2023/05/18 01:26:14;;;;;;;;;;;;;;;5.27;92.75;97029.50;4982629;28;19970;-73
2023/05/18 01:28:40;;;;;;;;;;;;;;;5.25;93.74;97031.50;4982729;28;20166;-73
2023/05/18 01:31:06;;;;;;;;;;;;;;;5.24;93.24;97035.84;5053544;28;19962;-73
2023/05/18 01:33:32;;;;;;;;;;;;;;;5.25;91.14;97016.69;4985619;28;19960;-73
2023/05/18 01:35:58;;;;;;;;;;;;;;;5.24;92.06;97024.66;4986188;28;19958;-74
2023/05/18 01:38:25;;;;;;;;;;;;;;;5.22;91.64;97018.81;4985685;28;19953;-73
2023/05/18 01:41:03;;;;;;;;;;;;;;;5.19;93.07;97021.75;4985726;28;19962;-73
2023/05/18 01:43:33;;;;;;;;;;;;;;;5.17;91.70;97014.13;4985755;28;19953;-69
2023/05/18 01:46:18;;;;;;;;;;;;;;;5.15;91.82;97010.88;4985693;28;19969;-73
2023/05/18 01:48:47;;;;;;;;;;;;;;;5.13;91.30;97014.63;4985270;28;19956;-74
2023/05/18 01:51:16;;;;;;;;;;;;;;;5.11;93.55;97027.81;4985319;28;20231;-73
2023/05/18 01:53:45;;;;;;;;;;;;;;;5.07;93.51;97013.50;4985324;28;19964;-72
2023/05/18 01:56:11;;;;;;;;;;;;;;;5.03;93.85;97009.63;5052568;28;19966;-72
2023/05/18 01:58:38;;;;;;;;;;;;;;;4.99;94.68;97008.34;4985365;28;19971;-71
2023/05/18 02:01:04;;;;;;;;;;;;;;;4.95;94.14;97007.06;4985382;28;19955;-72
2023/05/18 02:03:31;;;;;;;;;;;;;;;4.91;96.45;97006.56;4985865;28;19962;-70
2023/05/18 02:05:57;;;;;;;;;;;;;;;4.90;93.58;96996.38;4985475;28;19975;-72
2023/05/18 02:08:23;;;;;;;;;;;;;;;4.85;94.47;97005.47;4985399;28;19952;-71
2023/05/18 02:10:49;;;;;;;;;;;;;;;4.82;95.67;97008.41;4985517;28;19962;-72
2023/05/18 02:13:15;;;;;;;;;;;;;;;4.79;93.82;96995.75;4985431;28;20119;-71
2023/05/18 02:15:41;;;;;;;;;;;;;;;4.76;93.96;96990.88;4985370;28;19970;-72
2023/05/18 02:18:07;;;;;;;;;;;;;;;4.70;92.83;96988.13;5051916;28;20265;-71
2023/05/18 02:20:33;;;;;;;;;;;;;;;4.64;95.86;96995.63;4985397;28;19981;-68
2023/05/18 02:22:59;;;;;;;;;;;;;;;4.59;95.96;97004.91;4984877;28;19962;-74
2023/05/18 02:25:25;;;;;;;;;;;;;;;4.55;93.80;96993.22;5052417;28;20135;-74
2023/05/18 02:27:51;;;;;;;;;;;;;;;4.47;95.08;97002.66;4984900;28;19955;-74
2023/05/18 02:30:17;;;;;;;;;;;;;;;4.43;97.03;97006.56;4984962;28;20102;-74
2023/05/18 02:32:45;;;;;;;;;;;;;;;4.41;97.30;97005.09;4984924;28;19956;-74
2023/05/18 02:35:11;;;;;;;;;;;;;;;4.38;97.82;96997.63;4984943;28;20230;-74
2023/05/18 02:37:42;;;;;;;;;;;;;;;4.36;96.41;96989.19;4985044;28;19966;-74
2023/05/18 02:40:09;;;;;;;;;;;;;;;4.34;98.10;96999.75;4984670;28;19937;-72
2023/05/18 02:42:35;;;;;;;;;;;;;;;4.32;97.71;96996.50;4984981;28;20209;-71
2023/05/18 02:45:01;;;;;;;;;;;;;;;4.31;97.79;96992.28;4984889;28;19960;-72
2023/05/18 02:47:27;;;;;;;;;;;;;;;4.32;99.86;96991.31;4984467;28;19946;-72
2023/05/18 02:49:53;;;;;;;;;;;;;;;4.33;98.42;96986.94;4984697;28;19963;-71
2023/05/18 02:52:19;;;;;;;;;;;;;;;4.33;98.82;96982.56;4984496;28;19970;-72
2023/05/18 02:54:45;;;;;;;;;;;;;;;4.33;97.44;96979.16;4984243;28;20024;-72
2023/05/18 02:57:12;;;;;;;;;;;;;;;4.30;95.47;96969.88;4984696;28;20001;-72
2023/05/18 02:59:38;;;;;;;;;;;;;;;4.24;97.74;96979.16;4984497;28;19952;-71
2023/05/18 03:02:04;;;;;;;;;;;;;;;4.18;97.34;96987.59;4984485;28;19953;-71
2023/05/18 03:04:30;;;;;;;;;;;;;;;4.15;96.88;96974.13;5051505;28;20030;-70
2023/05/18 03:06:57;;;;;;;;;;;;;;;4.12;97.53;96977.88;4984518;28;19959;-70
2023/05/18 03:09:23;;;;;;;;;;;;;;;4.10;99.91;96981.63;4984546;28;19950;-70
2023/05/18 03:11:50;;;;;;;;;;;;;;;4.05;98.70;96982.09;4984579;28;19956;-70
2023/05/18 03:14:16;;;;;;;;;;;;;;;4.02;99.95;96983.22;4984552;28;19960;-71
2023/05/18 03:16:42;;;;;;;;;;;;;;;4.00;98.97;96982.56;4983932;28;19957;-70
2023/05/18 03:19:08;;;;;;;;;;;;;;;3.98;98.91;96981.13;4984505;28;20241;-71
2023/05/18 03:21:35;;;;;;;;;;;;;;;3.95;99.99;96976.25;4984250;28;19954;-72
2023/05/18 03:24:01;;;;;;;;;;;;;;;3.92;100.00;96989.56;4984217;28;19965;-72
2023/05/18 03:26:29;;;;;;;;;;;;;;;3.90;99.79;96971.56;4983982;28;19959;-72
2023/05/18 03:28:55;;;;;;;;;;;;;;;3.88;100.00;96983.88;4984047;28;20264;-71
2023/05/18 03:31:21;;;;;;;;;;;;;;;3.86;100.00;96984.06;4984045;28;19952;-72
2023/05/18 03:33:47;;;;;;;;;;;;;;;3.88;99.85;96975.28;4984075;28;20252;-67
2023/05/18 03:36:15;;;;;;;;;;;;;;;3.84;100.00;96969.59;5051024;28;19950;-67
2023/05/18 03:38:44;;;;;;;;;;;;;;;3.82;100.00;96976.75;5051115;28;19959;-68
2023/05/18 03:41:10;;;;;;;;;;;;;;;3.81;100.00;96975.94;5050861;28;19962;-67
2023/05/18 03:43:36;;;;;;;;;;;;;;;3.81;100.00;96980.31;4984087;28;19965;-69
2023/05/18 03:46:02;;;;;;;;;;;;;;;3.79;100.00;96988.25;4983533;28;19958;-67
2023/05/18 03:48:28;;;;;;;;;;;;;;;3.77;100.00;96977.22;5051121;28;19959;-67
2023/05/18 03:50:54;;;;;;;;;;;;;;;3.77;99.08;96979.03;4983036;28;20198;-67
2023/05/18 03:53:20;;;;;;;;;;;;;;;3.78;100.00;96983.22;4983820;28;19959;-72
2023/05/18 03:55:48;;;;;;;;;;;;;;;3.80;100.00;96991.66;4983639;28;19957;-71
2023/05/18 03:58:14;;;;;;;;;;;;;;;3.81;100.00;96990.69;4983762;28;19968;-71
2023/05/18 04:00:41;;;;;;;;;;;;;;;3.80;100.00;96994.25;4983649;28;19965;-72
2023/05/18 04:03:13;;;;;;;;;;;;;;;3.78;100.00;96981.47;4983271;28;20259;-71
2023/05/18 04:05:42;;;;;;;;;;;;;;;3.80;100.00;96991.66;4983652;28;20255;-72
2023/05/18 04:08:09;;;;;;;;;;;;;;;3.79;100.00;96988.25;4983758;28;19962;-72
2023/05/18 04:10:35;;;;;;;;;;;;;;;3.78;100.00;96985.81;4983744;28;20258;-69
2023/05/18 04:13:01;;;;;;;;;;;;;;;3.77;99.97;96989.41;4983205;28;19940;-72
2023/05/18 04:15:27;;;;;;;;;;;;;;;3.77;100.00;96995.38;4983367;28;19951;-71
2023/05/18 04:17:52;;;;;;;;;;;;;;;3.77;100.00;97002.38;4983604;28;19962;-71
2023/05/18 04:20:19;;;;;;;;;;;;;;;3.78;100.00;97004.81;4983764;28;19962;-71
2023/05/18 04:22:46;;;;;;;;;;;;;;;3.80;100.00;97010.66;4983258;28;19965;-72
2023/05/18 04:25:16;;;;;;;;;;;;;;;3.83;100.00;96997.34;4983126;28;20251;-72
2023/05/18 04:27:42;;;;;;;;;;;;;;;3.86;100.00;97012.59;4983311;28;19953;-73
2023/05/18 04:30:10;;;;;;;;;;;;;;;3.91;100.00;97009.50;4983340;28;19962;-75
2023/05/18 04:32:36;;;;;;;;;;;;;;;3.97;100.00;97015.81;4983294;28;19959;-74
2023/05/18 04:35:04;;;;;;;;;;;;;;;4.02;100.00;97010.97;4983320;28;19963;-74
2023/05/18 04:37:30;;;;;;;;;;;;;;;4.07;100.00;97019.06;5049846;28;19949;-75
2023/05/18 04:39:57;;;;;;;;;;;;;;;4.16;100.00;97010.31;5049996;28;19965;-75
2023/05/18 04:42:26;;;;;;;;;;;;;;;4.24;98.79;97007.72;4983213;28;19971;-75
2023/05/18 04:44:53;;;;;;;;;;;;;;;4.35;100.00;97014.38;4983198;28;19956;-74
2023/05/18 04:47:20;;;;;;;;;;;;;;;4.47;100.00;97018.25;4982833;28;19960;-68
2023/05/18 04:49:47;;;;;;;;;;;;;;;4.60;99.73;97015.13;4982914;28;20138;-68
2023/05/18 04:52:13;;;;;;;;;;;;;;;4.74;100.00;97023.22;4982912;28;20130;-68
2023/05/18 04:54:40;;;;;;;;;;;;;;;4.84;99.37;97013.44;4983107;28;19959;-68
2023/05/18 04:57:05;;;;;;;;;;;;;;;4.98;97.51;97004.16;4982893;28;19957;-68
2023/05/18 04:59:35;;;;;;;;;;;;;;;5.15;98.87;97016.09;4982931;28;19993;-68
2023/05/18 05:02:02;;;;;;;;;;;;;;;5.32;97.33;97005.59;4982941;28;19960;-68
2023/05/18 05:04:27;;;;;;;;;;;;;;;5.46;97.13;97008.28;4982900;28;20257;-68
2023/05/18 05:06:53;;;;;;;;;;;;;;;5.64;95.61;97002.00;4982815;28;19960;-68
2023/05/18 05:09:19;;;;;;;;;;;;;;;5.81;95.61;96995.69;4983204;28;20090;-72
2023/05/18 05:11:45;;;;;;;;;;;;;;;5.98;95.03;97000.81;4982606;28;19966;-73
2023/05/18 05:14:11;;;;;;;;;;;;;;;6.14;94.11;96990.25;4982859;28;19953;-71
2023/05/18 05:16:37;;;;;;;;;;;;;;;6.34;93.73;96997.56;4982423;28;19958;-72
2023/05/18 05:19:03;;;;;;;;;;;;;;;6.51;92.95;96991.22;4982769;28;19974;-72
2023/05/18 05:21:30;;;;;;;;;;;;;;;6.68;91.95;96992.69;4982240;28;20315;-72
2023/05/18 05:23:56;;;;;;;;;;;;;;;6.81;91.30;96984.22;4982795;28;19961;-68
2023/05/18 05:26:22;;;;;;;;;;;;;;;6.99;91.12;96983.03;4982499;28;19977;-68
2023/05/18 05:28:48;;;;;;;;;;;;;;;7.13;89.97;96969.16;4982636;28;19960;-67
2023/05/18 05:31:14;;;;;;;;;;;;;;;7.29;89.84;96976.78;4982816;28;19964;-67
2023/05/18 05:33:40;;;;;;;;;;;;;;;7.41;88.56;96971.06;4982639;28;19953;-67
2023/05/18 05:36:07;;;;;;;;;;;;;;;7.52;88.51;96968.78;4982604;28;19955;-68
2023/05/18 05:38:33;;;;;;;;;;;;;;;7.67;87.10;96963.53;4982157;28;20138;-68
2023/05/18 05:40:59;;;;;;;;;;;;;;;7.82;86.05;96957.44;4982808;28;19965;-68
2023/05/18 05:43:25;;;;;;;;;;;;;;;7.93;86.78;96947.25;4982577;28;19950;-69
2023/05/18 05:45:51;;;;;;;;;;;;;;;8.10;86.25;96950.41;4982042;28;19981;-73
2023/05/18 05:48:17;;;;;;;;;;;;;;;8.31;86.20;96954.78;4982675;28;19959;-74
2023/05/18 05:50:42;;;;;;;;;;;;;;;8.50;84.63;96942.06;5049137;28;19961;-75
2023/05/18 05:53:08;;;;;;;;;;;;;;;8.64;83.59;96935.91;4982304;28;19993;-74
2023/05/18 05:55:39;;;;;;;;;;;;;;;8.73;83.03;96928.72;4982492;28;19961;-74
2023/05/18 05:58:06;;;;;;;;;;;;;;;8.84;83.12;96932.59;4982348;28;19966;-74
2023/05/18 06:00:32;;;;;;;;;;;;;;;9.03;82.61;96929.25;4982285;28;19962;-70
2023/05/18 06:02:58;;;;;;;;;;;;;;;9.11;82.10;96915.19;4982377;28;19962;-73
2023/05/18 06:05:24;;;;;;;;;;;;;;;9.15;80.84;96911.16;4982237;28;20244;-72
2023/05/18 06:07:50;;;;;;;;;;;;;;;9.23;80.75;96911.00;4981747;28;20243;-72
2023/05/18 06:10:16;;;;;;;;;;;;;;;9.30;79.04;96890.06;4981813;28;19954;-72
2023/05/18 06:12:41;;;;;;;;;;;;;;;9.40;78.30;96890.50;4981837;28;20253;-72
2023/05/18 06:15:07;;;;;;;;;;;;;;;9.61;79.80;96907.03;4983046;28;19958;-72
2023/05/18 06:17:33;;;;;;;;;;;;;;;9.83;78.28;96897.19;4985352;28;19967;-72
2023/05/18 06:19:59;;;;;;;;;;;;;;;9.95;76.36;96877.22;4985703;28;19955;-72
2023/05/18 06:22:25;;;;;;;;;;;;;;;10.14;79.90;96913.09;4985210;28;19956;-71
2023/05/18 06:24:51;;;;;;;;;;;;;;;10.19;75.54;96875.00;4985178;28;19954;-71
2023/05/18 06:27:17;;;;;;;;;;;;;;;10.24;75.92;96880.41;4985121;28;19972;-71
2023/05/18 06:29:43;;;;;;;;;;;;;;;10.43;76.62;96890.06;4985301;28;19963;-71
2023/05/18 06:32:11;;;;;;;;;;;;;;;10.66;77.50;96905.34;4985236;28;19963;-71
2023/05/18 06:34:37;;;;;;;;;;;;;;;10.83;76.23;96894.38;4985236;28;19957;-72
2023/05/18 06:37:02;;;;;;;;;;;;;;;10.94;73.15;96867.47;4984661;28;19943;-69
2023/05/18 06:39:28;;;;;;;;;;;;;;;11.06;73.09;96862.38;4984773;28;19971;-73
2023/05/18 06:41:55;;;;;;;;;;;;;;;11.00;69.78;96847.47;4985142;28;19961;-72
2023/05/18 06:44:20;;;;;;;;;;;;;;;11.09;70.97;96860.16;4985286;28;19955;-72
2023/05/18 06:46:47;;;;;;;;;;;;;;;11.24;72.33;96878.25;4984418;28;19968;-72
2023/05/18 06:49:13;;;;;;;;;;;;;;;11.35;70.06;96859.16;4984713;28;19961;-72
2023/05/18 06:51:40;;;;;;;;;;;;;;;11.47;73.75;96888.19;4984752;28;19980;-72
2023/05/18 06:54:06;;;;;;;;;;;;;;;11.68;73.85;96897.53;4985049;28;19963;-72
2023/05/18 06:56:32;;;;;;;;;;;;;;;11.86;71.50;96877.59;4984999;28;19953;-73
2023/05/18 06:58:58;;;;;;;;;;;;;;;12.07;70.22;96871.16;4984847;28;19982;-74
2023/05/18 07:01:23;;;;;;;;;;;;;;;12.21;72.15;96895.53;4984816;28;19956;-74
2023/05/18 07:03:49;;;;;;;;;;;;;;;12.22;70.00;96924.25;4984801;28;20241;-74
2023/05/18 07:06:15;;;;;;;;;;;;;;;12.26;70.86;96948.25;4984657;28;19968;-73
2023/05/18 07:08:42;;;;;;;;;;;;;;;12.44;71.60;96953.56;4984947;28;20243;-74
2023/05/18 07:11:08;;;;;;;;;;;;;;;12.61;67.61;96943.28;4984434;28;19958;-73
2023/05/18 07:13:34;;;;;;;;;;;;;;;12.75;69.24;96954.47;4984289;28;19963;-73
2023/05/18 07:16:00;;;;;;;;;;;;;;;12.91;68.35;96964.41;4984737;28;20219;-73
2023/05/18 07:18:26;;;;;;;;;;;;;;;13.07;70.02;96962.22;4984183;28;19967;-67
2023/05/18 07:20:52;;;;;;;;;;;;;;;13.09;65.26;96939.91;4984253;28;19983;-68
2023/05/18 07:23:17;;;;;;;;;;;;;;;12.95;65.37;96948.97;4984546;28;19957;-67
2023/05/18 07:25:43;;;;;;;;;;;;;;;12.93;67.41;96964.19;4983153;28;19964;-68
2023/05/18 07:28:09;;;;;;;;;;;;;;;12.95;67.79;96962.94;5050570;28;19959;-67
2023/05/18 07:30:35;;;;;;;;;;;;;;;13.01;67.90;96966.53;4984312;28;19958;-67
2023/05/18 07:33:01;;;;;;;;;;;;;;;13.10;68.63;96967.84;4984417;28;19968;-72
2023/05/18 07:35:27;;;;;;;;;;;;;;;13.20;67.37;96976.00;4984290;28;19964;-72
2023/05/18 07:37:53;;;;;;;;;;;;;;;13.17;67.34;96965.13;4984208;28;19955;-72
2023/05/18 07:40:19;;;;;;;;;;;;;;;13.24;67.87;96975.59;4983794;28;19975;-72
2023/05/18 07:42:45;;;;;;;;;;;;;;;13.36;66.92;96961.47;4983836;28;19958;-73
2023/05/18 07:45:11;;;;;;;;;;;;;;;13.50;65.90;96962.13;4984103;28;19966;-72
2023/05/18 07:47:37;;;;;;;;;;;;;;;13.58;66.27;96961.78;4983732;28;19969;-72
2023/05/18 07:50:03;;;;;;;;;;;;;;;13.56;64.44;96952.50;4983746;28;19975;-71
2023/05/18 07:52:30;;;;;;;;;;;;;;;13.57;65.45;96964.66;4983799;28;20143;-73
2023/05/18 07:54:56;;;;;;;;;;;;;;;13.37;61.04;96959.63;4984297;28;19965;-72
2023/05/18 07:57:23;;;;;;;;;;;;;;;13.32;60.78;96957.69;4983810;28;19963;-73
2023/05/18 07:59:49;;;;;;;;;;;;;;;13.31;61.52;96952.63;4983883;28;19953;-72
2023/05/18 08:02:16;;;;;;;;;;;;;;;13.32;65.59;96967.41;4983969;28;20017;-72
2023/05/18 08:04:42;;;;;;;;;;;;;;;13.56;67.21;96974.38;4983774;28;19954;-73
2023/05/18 08:07:09;;;;;;;;;;;;;;;13.74;64.15;96970.88;4983226;28;20001;-73
2023/05/18 08:09:35;;;;;;;;;;;;;;;13.87;61.29;96967.25;4983778;28;19967;-67
2023/05/18 08:12:01;;;;;;;;;;;;;;;13.97;62.51;96964.06;5050786;28;19987;-72
2023/05/18 08:14:27;;;;;;;;;;;;;;;14.02;62.68;96977.38;4983619;28;19964;-73
2023/05/18 08:16:52;;;;;;;;;;;;;;;13.87;60.72;96974.38;4983248;28;19962;-73
2023/05/18 08:19:18;;;;;;;;;;;;;;;13.81;57.88;96960.25;4983328;28;19968;-73
2023/05/18 08:21:45;;;;;;;;;;;;;;;13.88;60.72;96965.41;4983385;28;20011;-72
2023/05/18 08:24:11;;;;;;;;;;;;;;;14.06;63.63;96980.38;5050182;28;19964;-73
2023/05/18 08:26:36;;;;;;;;;;;;;;;14.09;63.10;96982.53;4983316;28;19975;-73
2023/05/18 08:29:08;;;;;;;;;;;;;;;14.11;57.93;96954.94;4983447;28;20246;-72
2023/05/18 08:31:38;;;;;;;;;;;;;;;14.14;59.19;96961.59;4983505;28;19958;-73
2023/05/18 08:34:04;;;;;;;;;;;;;;;14.14;59.41;96965.00;4983349;28;19944;-73
2023/05/18 08:36:32;;;;;;;;;;;;;;;14.27;63.29;96971.91;4982909;28;19959;-72
2023/05/18 08:38:58;;;;;;;;;;;;;;;14.41;61.95;96968.03;4982439;28;19950;-72
2023/05/18 08:41:36;;;;;;;;;;;;;;;14.59;59.21;96958.41;4983448;28;19956;-73
2023/05/18 08:44:04;;;;;;;;;;;;;;;14.65;56.65;96954.84;4982680;28;19962;-72
2023/05/18 08:46:34;;;;;;;;;;;;;;;14.58;58.08;96956.81;4983124;28;20278;-72
2023/05/18 08:49:01;;;;;;;;;;;;;;;14.62;61.11;96965.88;4982991;28;20272;-68
2023/05/18 08:51:28;;;;;;;;;;;;;;;14.72;60.94;96965.28;4982991;28;19976;-67
2023/05/18 08:53:54;;;;;;;;;;;;;;;14.77;57.81;96942.44;4983128;28;20267;-68
2023/05/18 08:56:21;;;;;;;;;;;;;;;14.85;60.91;96965.06;4983011;28;19956;-67
2023/05/18 08:58:49;;;;;;;;;;;;;;;14.81;58.13;96953.34;4982943;28;19960;-68
2023/05/18 09:01:15;;;;;;;;;;;;;;;14.93;59.02;96967.34;5049823;28;19963;-68
2023/05/18 09:03:41;;;;;;;;;;;;;;;14.89;54.45;96946.88;4982880;28;20245;-67
2023/05/18 09:06:07;;;;;;;;;;;;;;;14.84;57.26;96963.44;4982892;28;19963;-72
2023/05/18 09:08:33;;;;;;;;;;;;;;;14.77;56.05;96955.63;4982624;28;20166;-72
2023/05/18 09:11:00;;;;;;;;;;;;;;;14.84;56.71;96966.06;4982748;28;19968;-72
2023/05/18 09:13:26;;;;;;;;;;;;;;;14.71;53.37;96953.91;4982985;28;20135;-72
2023/05/18 09:15:52;;;;;;;;;;;;;;;14.67;54.41;96947.50;4982645;28;19957;-72
2023/05/18 09:18:18;;;;;;;;;;;;;;;14.63;55.44;96956.13;4982586;28;19964;-72
2023/05/18 09:20:44;;;;;;;;;;;;;;;14.46;54.04;96959.41;5049197;28;20049;-72
2023/05/18 09:23:13;;;;;;;;;;;;;;;14.48;55.59;96959.19;4982827;28;20266;-72
2023/05/18 09:25:42;;;;;;;;;;;;;;;14.63;55.86;96966.66;4982735;28;19960;-68
2023/05/18 09:28:08;;;;;;;;;;;;;;;14.51;53.95;96967.47;4982161;28;19941;-68
2023/05/18 09:30:41;;;;;;;;;;;;;;;14.39;52.80;96961.38;4982252;28;20132;-67
2023/05/18 09:33:15;;;;;;;;;;;;;;;14.57;55.12;96963.09;4982427;28;19953;-68
2023/05/18 09:35:42;;;;;;;;;;;;;;;14.82;55.20;96971.59;4982317;28;19968;-68
2023/05/18 09:38:09;;;;;;;;;;;;;;;14.91;53.91;96969.41;4982323;28;19954;-69
2023/05/18 09:40:35;;;;;;;;;;;;;;;14.95;51.56;96953.88;4982366;28;20133;-68
2023/05/18 09:43:05;;;;;;;;;;;;;;;14.99;53.39;96957.66;4982637;28;19960;-72
2023/05/18 09:45:31;;;;;;;;;;;;;;;14.98;53.87;96967.44;5049287;28;19966;-73
2023/05/18 09:47:57;;;;;;;;;;;;;;;15.17;52.16;96960.16;4982327;28;19960;-73
2023/05/18 09:50:25;;;;;;;;;;;;;;;15.37;54.76;96961.56;4983576;28;21085;-73
2023/05/18 09:52:51;;;;;;;;;;;;;;;15.60;52.76;96950.91;4985324;28;19943;-73
2023/05/18 09:55:17;;;;;;;;;;;;;;;15.75;52.35;96946.97;4985325;28;19954;-72
2023/05/18 09:57:44;;;;;;;;;;;;;;;15.90;51.25;96943.78;4985743;28;19956;-73
2023/05/18 10:00:11;;;;;;;;;;;;;;;16.05;51.45;96946.66;4985353;28;19962;-72
2023/05/18 10:02:42;;;;;;;;;;;;;;;16.29;52.19;96947.28;4985334;28;20265;-72
2023/05/18 10:05:34;;;;;;;;;;;;;;;16.49;51.14;96933.56;4985484;28;19956;-73
2023/05/18 10:08:00;;;;;;;;;;;;;;;16.30;49.23;96927.72;4987104;28;19970;-73
2023/05/18 10:10:27;;;;;;;;;;;;;;;16.15;49.97;96938.09;4985756;28;19963;-73
2023/05/18 10:12:54;;;;;;;;;;;;;;;16.02;47.73;96937.38;4985518;28;19965;-72
2023/05/18 10:15:21;;;;;;;;;;;;;;;15.99;50.82;96934.41;4984942;28;19942;-72
2023/05/18 10:17:47;;;;;;;;;;;;;;;16.17;52.69;96934.16;4985399;28;19958;-74
2023/05/18 10:20:16;;;;;;;;;;;;;;;16.32;50.41;96936.22;5052815;28;19960;-73
2023/05/18 10:22:43;;;;;;;;;;;;;;;16.46;51.67;96933.25;4985129;28;19967;-67
2023/05/18 10:25:10;;;;;;;;;;;;;;;16.61;53.00;96949.34;4984994;28;19957;-68
2023/05/18 10:27:36;;;;;;;;;;;;;;;16.51;46.23;96923.53;4984947;28;19982;-67
2023/05/18 10:30:06;;;;;;;;;;;;;;;16.44;48.78;96928.19;4984971;28;19993;-67
2023/05/18 10:32:34;;;;;;;;;;;;;;;16.43;48.73;96931.88;4985291;28;20140;-66
2023/05/18 10:35:02;;;;;;;;;;;;;;;16.48;47.03;96931.94;4985227;28;19959;-67
2023/05/18 10:37:29;;;;;;;;;;;;;;;16.48;49.82;96929.28;4985190;28;19964;-73
2023/05/18 10:39:57;;;;;;;;;;;;;;;16.41;49.94;96932.13;5051959;28;19964;-72
2023/05/18 10:42:24;;;;;;;;;;;;;;;16.48;47.53;96928.50;4984526;28;19943;-72
2023/05/18 10:44:51;;;;;;;;;;;;;;;16.66;49.59;96930.88;4985053;28;19962;-72
2023/05/18 10:47:18;;;;;;;;;;;;;;;16.89;49.30;96939.69;4984731;28;19961;-72
2023/05/18 10:49:50;;;;;;;;;;;;;;;16.76;49.07;96938.16;4984632;28;20233;-72
2023/05/18 10:52:16;;;;;;;;;;;;;;;16.90;49.56;96933.31;5051988;28;19957;-73
2023/05/18 10:54:43;;;;;;;;;;;;;;;17.03;48.52;96935.63;4984361;28;20153;-72
2023/05/18 10:57:16;;;;;;;;;;;;;;;16.91;48.55;96932.28;4984640;28;20266;-72
2023/05/18 10:59:43;;;;;;;;;;;;;;;17.06;47.78;96943.06;4984700;28;19964;-73
2023/05/18 11:02:12;;;;;;;;;;;;;;;17.19;48.05;96928.63;4984438;28;19965;-73
2023/05/18 11:04:39;;;;;;;;;;;;;;;17.39;46.47;96926.22;4984775;28;20249;-73
2023/05/18 11:07:09;;;;;;;;;;;;;;;17.43;46.17;96915.91;4984620;28;20144;-73
2023/05/18 11:09:35;;;;;;;;;;;;;;;17.68;49.07;96925.16;4984255;28;19962;-74
2023/05/18 11:12:01;;;;;;;;;;;;;;;17.80;46.60;96923.13;4984288;28;19951;-73
2023/05/18 11:14:30;;;;;;;;;;;;;;;17.74;42.57;96924.94;4984744;28;19978;-73
2023/05/18 11:17:16;;;;;;;;;;;;;;;17.68;44.47;96925.16;4984525;28;20241;-72
2023/05/18 11:20:00;;;;;;;;;;;;;;;17.54;42.97;96924.78;4984426;28;19963;-72
2023/05/18 11:22:39;;;;;;;;;;;;;;;17.56;45.43;96920.81;4984539;28;20285;-72
2023/05/18 11:25:07;;;;;;;;;;;;;;;17.80;46.31;96923.94;4983921;28;20143;-73
2023/05/18 11:27:32;;;;;;;;;;;;;;;18.02;46.50;96915.94;4983929;28;20269;-72
2023/05/18 11:29:58;;;;;;;;;;;;;;;18.22;46.21;96922.44;4983997;28;19954;-72
2023/05/18 11:32:30;;;;;;;;;;;;;;;18.35;45.41;96918.53;4984063;28;19969;-73
2023/05/18 11:34:56;;;;;;;;;;;;;;;18.44;45.72;96917.81;5051246;28;19960;-73
2023/05/18 11:37:37;;;;;;;;;;;;;;;18.32;42.83;96905.78;4984003;28;19963;-73
2023/05/18 11:40:08;;;;;;;;;;;;;;;18.66;46.77;96915.00;4984177;28;20257;-73
2023/05/18 11:42:34;;;;;;;;;;;;;;;18.81;42.19;96910.84;4984199;28;19958;-72
2023/05/18 11:45:07;;;;;;;;;;;;;;;18.30;40.55;96899.94;4983651;28;19955;-73
2023/05/18 11:47:33;;;;;;;;;;;;;;;18.14;41.83;96906.97;4984244;28;19979;-73
2023/05/18 11:49:59;;;;;;;;;;;;;;;17.95;42.96;96923.28;4983640;28;19942;-72
2023/05/18 11:52:25;;;;;;;;;;;;;;;17.90;43.48;96917.16;4983700;28;19956;-72
2023/05/18 11:54:52;;;;;;;;;;;;;;;18.08;43.19;96900.03;4983658;28;19961;-72
2023/05/18 11:57:19;;;;;;;;;;;;;;;18.24;44.61;96907.06;4983644;28;19966;-72
2023/05/18 11:59:46;;;;;;;;;;;;;;;18.31;41.50;96904.16;4983616;28;19992;-71
2023/05/18 12:02:18;;;;;;;;;;;;;;;18.31;44.82;96904.16;4983684;28;19958;-72
2023/05/18 12:04:45;;;;;;;;;;;;;;;18.08;43.89;96906.16;4983693;28;19958;-71
2023/05/18 12:07:11;;;;;;;;;;;;;;;18.13;43.85;96906.19;4983646;28;20171;-71
2023/05/18 12:09:43;;;;;;;;;;;;;;;18.36;42.76;96901.56;4983765;28;19951;-71
2023/05/18 12:12:12;;;;;;;;;;;;;;;18.69;44.49;96900.41;4983069;28;20146;-72
2023/05/18 12:14:41;;;;;;;;;;;;;;;18.90;44.28;96888.06;4983270;28;19954;-72
2023/05/18 12:17:07;;;;;;;;;;;;;;;18.94;44.75;96896.28;5055025;28;20259;-72
2023/05/18 12:19:37;;;;;;;;;;;;;;;18.95;44.22;96892.59;4983271;28;19955;-72
2023/05/18 12:22:04;;;;;;;;;;;;;;;18.94;42.68;96885.66;4983276;28;19959;-72
2023/05/18 12:24:31;;;;;;;;;;;;;;;18.90;43.37;96884.56;4983319;28;19959;-72
2023/05/18 12:27:03;;;;;;;;;;;;;;;18.50;40.42;96900.06;4983204;28;19972;-72
2023/05/18 12:29:29;;;;;;;;;;;;;;;18.15;43.43;96896.13;4983393;28;19956;-73
2023/05/18 12:31:55;;;;;;;;;;;;;;;18.07;41.65;96896.59;4983297;28;19969;-72
2023/05/18 12:34:20;;;;;;;;;;;;;;;18.17;43.47;96887.91;4983412;28;20019;-71
2023/05/18 12:36:53;;;;;;;;;;;;;;;18.24;44.08;96888.47;4982806;28;20021;-72
2023/05/18 12:39:19;;;;;;;;;;;;;;;18.23;44.87;96890.34;4983307;28;19960;-72
2023/05/18 12:41:46;;;;;;;;;;;;;;;18.17;43.55;96893.22;4983164;28;19938;-72
2023/05/18 12:44:12;;;;;;;;;;;;;;;18.28;43.56;96896.72;4982878;28;19961;-72
2023/05/18 12:46:38;;;;;;;;;;;;;;;18.33;43.19;96884.28;4982891;28;20020;-71
2023/05/18 12:49:05;;;;;;;;;;;;;;;18.58;44.25;96888.94;4982873;28;20141;-67
2023/05/18 12:51:34;;;;;;;;;;;;;;;18.82;43.90;96873.41;5049680;28;19963;-68